Allendale, SC (29810)

8:14 AM EDT on July 23, 2016 (GMT -0400)
JCO Farms | | Change Station

Elev 167 ft 32.99 °N, 81.29 °W | Updated 19 seconds ago

Clear
Clear
77.4 °F
Feels Like 78 °F
N
0.0
Wind Variable Wind from SSW
Gusts 0.0 mph

Today
High -- | Low -- °F
--% Chance of Precip.
Yesterday
High -- | Low -- °F
Precip. -- in
Pressure 30.03 in
Visibility 10.0 miles
Clouds Clear
Heat Index 78 °F
Dew Point 52 °F
Humidity 41%
Rainfall in
Snow Depth Not available.
6:32 AM 8:30 PM
Waning Gibbous, 85% visible
METAR KRBW 231155Z AUTO 24004KT 10SM CLR 26/26 A3003 RMK AO2
Pressure 30.03 in
Visibility 10.0 miles
Clouds Clear
Heat Index 78 °F
Dew Point 52 °F
Humidity 41%
Rainfall in
Snow Depth Not available.
6:32 AM 8:30 PM
Waning Gibbous, 85% visible
METAR KRBW 231155Z AUTO 24004KT 10SM CLR 26/26 A3003 RMK AO2

10-Day Weather Forecast

Almanac

Astronomy

Jul. 23, 2016 Rise Set
Actual Time
Civil Twilight
Nautical Twilight
Astronomical Twilight
Moon
Length of Visible Light
Length of Day
Tomorrow will be .
, % of the Moon is Illuminated

Today's Extremes

State Highs State Lows

Community

WunderPhotos

Upload Photos

1,926,811 photos uploaded!

WunderBlog® & News

Nearby

Air Quality

  Air Quality AQ Index Pollutant
Not available.

Snow Depth

Station Depth Elevation

Earthquake Activity

City Distance Mag. Time & Date
Minimum magnitude displayed is 2.5.

Coastal Water Temperatures

Place Temperature

Stations

Nearby Weather Stations

Station Location Temp. Windchill Dew Point Humidity Wind Precip. Elev Updated Type
                   

Watches & Warnings

There are currently no watches in effect.